sensor_id;sensor_type;location;lat;lon;timestamp;pressure;altitude;pressure_sealevel;temperature;humidity
32320;BME280;19080;51.750;5.888;2023-07-09T00:00:50;101496.69;;;22.12;100.00
32320;BME280;19080;51.750;5.888;2023-07-09T00:03:18;101483.34;;;22.04;100.00
32320;BME280;19080;51.750;5.888;2023-07-09T00:05:48;101521.66;;;22.25;100.00
32320;BME280;19080;51.750;5.888;2023-07-09T00:08:24;101515.34;;;22.24;100.00
32320;BME280;19080;51.750;5.888;2023-07-09T00:10:53;101517.22;;;22.21;100.00
32320;BME280;19080;51.750;5.888;2023-07-09T00:13:20;101420.16;;;21.67;100.00
32320;BME280;19080;51.750;5.888;2023-07-09T00:15:49;101491.44;;;22.04;100.00
32320;BME280;19080;51.750;5.888;2023-07-09T00:18:16;101484.25;;;22.03;100.00
32320;BME280;19080;51.750;5.888;2023-07-09T00:20:43;101482.50;;;21.99;100.00
32320;BME280;19080;51.750;5.888;2023-07-09T00:23:10;101507.53;;;22.11;100.00
32320;BME280;19080;51.750;5.888;2023-07-09T00:25:40;101468.41;;;21.85;100.00
32320;BME280;19080;51.750;5.888;2023-07-09T00:28:14;101491.63;;;21.95;100.00
32320;BME280;19080;51.750;5.888;2023-07-09T00:30:41;101481.00;;;21.86;100.00
32320;BME280;19080;51.750;5.888;2023-07-09T00:33:11;101433.00;;;21.56;100.00
32320;BME280;19080;51.750;5.888;2023-07-09T00:35:42;101517.63;;;22.01;100.00
32320;BME280;19080;51.750;5.888;2023-07-09T00:38:20;101232.81;;;20.43;100.00
32320;BME280;19080;51.750;5.888;2023-07-09T00:41:00;101519.44;;;22.00;100.00
32320;BME280;19080;51.750;5.888;2023-07-09T00:43:33;101422.44;;;21.43;100.00
32320;BME280;19080;51.750;5.888;2023-07-09T00:48:52;101525.84;;;21.96;100.00
32320;BME280;19080;51.750;5.888;2023-07-09T00:51:21;101523.16;;;21.95;100.00
32320;BME280;19080;51.750;5.888;2023-07-09T00:53:52;101516.03;;;21.91;100.00
32320;BME280;19080;51.750;5.888;2023-07-09T00:56:33;101498.19;;;21.82;100.00
32320;BME280;19080;51.750;5.888;2023-07-09T00:59:15;101500.84;;;21.85;100.00
32320;BME280;19080;51.750;5.888;2023-07-09T01:01:44;101500.91;;;21.82;100.00
32320;BME280;19080;51.750;5.888;2023-07-09T01:04:14;101486.63;;;21.75;100.00
32320;BME280;19080;51.750;5.888;2023-07-09T01:06:45;101441.28;;;21.47;100.00
32320;BME280;19080;51.750;5.888;2023-07-09T01:09:13;101498.25;;;21.79;100.00
32320;BME280;19080;51.750;5.888;2023-07-09T01:11:40;101407.41;;;21.30;100.00
32320;BME280;19080;51.750;5.888;2023-07-09T01:14:11;101467.81;;;21.71;100.00
32320;BME280;19080;51.750;5.888;2023-07-09T01:16:47;101483.94;;;21.75;100.00
32320;BME280;19080;51.750;5.888;2023-07-09T01:19:15;101474.06;;;21.73;100.00
32320;BME280;19080;51.750;5.888;2023-07-09T01:21:43;101498.16;;;21.84;100.00
32320;BME280;19080;51.750;5.888;2023-07-09T01:24:13;101413.53;;;21.38;100.00
32320;BME280;19080;51.750;5.888;2023-07-09T01:26:40;101504.38;;;21.89;100.00
32320;BME280;19080;51.750;5.888;2023-07-09T01:29:07;101497.25;;;21.85;100.00
32320;BME280;19080;51.750;5.888;2023-07-09T01:31:34;101506.31;;;21.82;100.00
32320;BME280;19080;51.750;5.888;2023-07-09T01:34:02;101508.38;;;21.69;100.00
32320;BME280;19080;51.750;5.888;2023-07-09T01:36:29;101491.47;;;21.58;100.00
32320;BME280;19080;51.750;5.888;2023-07-09T01:38:57;101511.16;;;21.65;100.00
32320;BME280;19080;51.750;5.888;2023-07-09T01:41:24;101409.59;;;21.08;100.00
32320;BME280;19080;51.750;5.888;2023-07-09T01:43:51;101510.31;;;21.63;100.00
32320;BME280;19080;51.750;5.888;2023-07-09T01:46:19;101508.59;;;21.59;100.00
32320;BME280;19080;51.750;5.888;2023-07-09T01:48:47;101487.31;;;21.42;100.00
32320;BME280;19080;51.750;5.888;2023-07-09T01:51:16;101508.69;;;21.53;100.00
32320;BME280;19080;51.750;5.888;2023-07-09T01:53:44;101478.53;;;21.29;100.00
32320;BME280;19080;51.750;5.888;2023-07-09T01:56:11;101521.53;;;21.41;100.00
32320;BME280;19080;51.750;5.888;2023-07-09T01:58:38;101313.19;;;20.20;100.00
32320;BME280;19080;51.750;5.888;2023-07-09T02:01:10;101505.72;;;21.17;100.00
32320;BME280;19080;51.750;5.888;2023-07-09T02:03:37;101504.94;;;21.10;100.00
32320;BME280;19080;51.750;5.888;2023-07-09T02:06:04;101438.25;;;20.68;100.00
32320;BME280;19080;51.750;5.888;2023-07-09T02:08:36;101488.13;;;20.95;100.00
32320;BME280;19080;51.750;5.888;2023-07-09T02:11:03;101424.13;;;20.52;100.00
32320;BME280;19080;51.750;5.888;2023-07-09T02:13:30;101514.19;;;20.96;100.00
32320;BME280;19080;51.750;5.888;2023-07-09T02:15:57;101504.47;;;20.86;100.00
32320;BME280;19080;51.750;5.888;2023-07-09T02:18:24;101523.38;;;20.86;100.00
32320;BME280;19080;51.750;5.888;2023-07-09T02:20:51;101510.09;;;20.73;100.00
32320;BME280;19080;51.750;5.888;2023-07-09T02:23:18;101524.41;;;20.78;100.00
32320;BME280;19080;51.750;5.888;2023-07-09T02:25:44;101508.47;;;20.63;100.00
32320;BME280;19080;51.750;5.888;2023-07-09T02:28:11;101497.72;;;20.60;100.00
32320;BME280;19080;51.750;5.888;2023-07-09T02:30:38;101501.38;;;20.56;100.00
32320;BME280;19080;51.750;5.888;2023-07-09T02:33:05;101505.06;;;20.52;100.00
32320;BME280;19080;51.750;5.888;2023-07-09T02:35:32;101540.69;;;20.72;100.00
32320;BME280;19080;51.750;5.888;2023-07-09T02:38:00;101541.66;;;20.68;100.00
32320;BME280;19080;51.750;5.888;2023-07-09T02:40:26;101526.59;;;20.55;100.00
32320;BME280;19080;51.750;5.888;2023-07-09T02:42:53;101497.13;;;20.40;100.00
32320;BME280;19080;51.750;5.888;2023-07-09T02:45:20;101518.56;;;20.49;100.00
32320;BME280;19080;51.750;5.888;2023-07-09T02:47:47;101537.38;;;20.55;100.00
32320;BME280;19080;51.750;5.888;2023-07-09T02:50:15;101531.16;;;20.49;100.00
32320;BME280;19080;51.750;5.888;2023-07-09T02:52:42;101521.38;;;20.41;100.00
32320;BME280;19080;51.750;5.888;2023-07-09T02:55:09;101524.03;;;20.44;100.00
32320;BME280;19080;51.750;5.888;2023-07-09T02:57:35;101440.19;;;19.98;100.00
32320;BME280;19080;51.750;5.888;2023-07-09T03:00:03;101499.94;;;20.31;100.00
32320;BME280;19080;51.750;5.888;2023-07-09T03:02:33;101448.28;;;19.98;100.00
32320;BME280;19080;51.750;5.888;2023-07-09T03:05:00;101510.69;;;20.34;100.00
32320;BME280;19080;51.750;5.888;2023-07-09T03:07:27;101516.03;;;20.37;100.00
32320;BME280;19080;51.750;5.888;2023-07-09T03:09:53;101516.06;;;20.34;100.00
32320;BME280;19080;51.750;5.888;2023-07-09T03:12:20;101462.59;;;20.03;100.00
32320;BME280;19080;51.750;5.888;2023-07-09T03:14:48;101541.97;;;20.49;100.00
32320;BME280;19080;51.750;5.888;2023-07-09T03:17:15;101537.56;;;20.43;100.00
32320;BME280;19080;51.750;5.888;2023-07-09T03:19:42;101528.59;;;20.38;100.00
32320;BME280;19080;51.750;5.888;2023-07-09T03:22:09;101521.50;;;20.31;100.00
32320;BME280;19080;51.750;5.888;2023-07-09T03:24:36;101467.03;;;20.06;100.00
32320;BME280;19080;51.750;5.888;2023-07-09T03:27:02;101516.16;;;20.28;100.00
32320;BME280;19080;51.750;5.888;2023-07-09T03:29:29;101465.34;;;19.99;100.00
32320;BME280;19080;51.750;5.888;2023-07-09T03:31:56;101520.66;;;20.27;100.00
32320;BME280;19080;51.750;5.888;2023-07-09T03:34:22;101542.09;;;20.38;100.00
32320;BME280;19080;51.750;5.888;2023-07-09T03:36:49;101459.19;;;19.89;100.00
32320;BME280;19080;51.750;5.888;2023-07-09T03:39:16;101526.94;;;20.28;100.00
32320;BME280;19080;51.750;5.888;2023-07-09T03:41:42;101548.38;;;20.40;100.00
32320;BME280;19080;51.750;5.888;2023-07-09T03:44:09;101546.56;;;20.42;100.00
32320;BME280;19080;51.750;5.888;2023-07-09T03:46:36;101544.75;;;20.42;100.00
32320;BME280;19080;51.750;5.888;2023-07-09T03:49:03;101523.34;;;20.29;100.00
32320;BME280;19080;51.750;5.888;2023-07-09T03:51:29;101503.63;;;20.24;100.00
32320;BME280;19080;51.750;5.888;2023-07-09T03:53:56;101546.41;;;20.51;100.00
32320;BME280;19080;51.750;5.888;2023-07-09T03:56:23;101530.38;;;20.42;100.00
32320;BME280;19080;51.750;5.888;2023-07-09T03:58:49;101537.38;;;20.55;100.00
32320;BME280;19080;51.750;5.888;2023-07-09T04:01:16;101524.81;;;20.54;100.00
32320;BME280;19080;51.750;5.888;2023-07-09T04:03:43;101512.28;;;20.50;100.00
32320;BME280;19080;51.750;5.888;2023-07-09T04:06:10;101457.81;;;20.24;100.00
32320;BME280;19080;51.750;5.888;2023-07-09T04:08:36;101499.59;;;20.55;100.00
32320;BME280;19080;51.750;5.888;2023-07-09T04:11:03;101537.88;;;20.80;100.00
32320;BME280;19080;51.750;5.888;2023-07-09T04:13:30;101516.41;;;20.74;100.00
32320;BME280;19080;51.750;5.888;2023-07-09T04:15:57;101534.03;;;20.93;100.00
32320;BME280;19080;51.750;5.888;2023-07-09T04:18:24;101517.00;;;20.90;100.00
32320;BME280;19080;51.750;5.888;2023-07-09T04:20:51;101456.38;;;20.60;100.00
32320;BME280;19080;51.750;5.888;2023-07-09T04:23:18;101510.50;;;21.01;100.00
32320;BME280;19080;51.750;5.888;2023-07-09T04:25:45;101446.28;;;20.72;100.00
32320;BME280;19080;51.750;5.888;2023-07-09T04:28:14;101512.84;;;21.21;100.00
32320;BME280;19080;51.750;5.888;2023-07-09T04:30:48;101530.66;;;21.34;100.00
32320;BME280;19080;51.750;5.888;2023-07-09T04:33:16;101535.06;;;21.40;100.00
32320;BME280;19080;51.750;5.888;2023-07-09T04:35:45;101544.75;;;21.52;100.00
32320;BME280;19080;51.750;5.888;2023-07-09T04:38:15;101533.09;;;21.48;100.00
32320;BME280;19080;51.750;5.888;2023-07-09T04:40:43;101470.50;;;21.26;100.00
32320;BME280;19080;51.750;5.888;2023-07-09T04:43:11;101530.13;;;21.62;100.00
32320;BME280;19080;51.750;5.888;2023-07-09T04:45:38;101506.88;;;21.55;100.00
32320;BME280;19080;51.750;5.888;2023-07-09T04:48:05;101531.75;;;21.72;100.00
32320;BME280;19080;51.750;5.888;2023-07-09T04:50:32;101558.34;;;21.93;100.00
32320;BME280;19080;51.750;5.888;2023-07-09T04:53:00;101520.69;;;21.84;100.00
32320;BME280;19080;51.750;5.888;2023-07-09T04:55:26;101477.81;;;21.66;100.00
32320;BME280;19080;51.750;5.888;2023-07-09T04:57:53;101523.03;;;22.01;100.00
32320;BME280;19080;51.750;5.888;2023-07-09T05:00:20;101523.84;;;22.07;100.00
32320;BME280;19080;51.750;5.888;2023-07-09T05:02:47;101542.31;;;22.27;100.00
32320;BME280;19080;51.750;5.888;2023-07-09T05:05:14;101540.09;;;22.46;100.00
32320;BME280;19080;51.750;5.888;2023-07-09T05:07:41;101531.84;;;22.52;100.00
32320;BME280;19080;51.750;5.888;2023-07-09T05:10:08;101567.28;;;22.79;100.00
32320;BME280;19080;51.750;5.888;2023-07-09T05:12:35;101538.38;;;22.81;100.00
32320;BME280;19080;51.750;5.888;2023-07-09T05:15:02;101554.94;;;23.04;100.00
32320;BME280;19080;51.750;5.888;2023-07-09T05:17:28;101468.47;;;22.61;100.00
32320;BME280;19080;51.750;5.888;2023-07-09T05:19:55;101554.31;;;23.28;100.00
32320;BME280;19080;51.750;5.888;2023-07-09T05:22:22;101478.53;;;22.93;100.00
32320;BME280;19080;51.750;5.888;2023-07-09T05:24:48;101437.34;;;22.79;100.00
32320;BME280;19080;51.750;5.888;2023-07-09T05:27:15;101477.97;;;23.14;100.00
32320;BME280;19080;51.750;5.888;2023-07-09T05:29:42;101555.03;;;23.71;100.00
32320;BME280;19080;51.750;5.888;2023-07-09T05:32:08;101550.25;;;23.80;100.00
32320;BME280;19080;51.750;5.888;2023-07-09T05:34:35;101533.78;;;23.86;100.00
32320;BME280;19080;51.750;5.888;2023-07-09T05:37:02;101518.31;;;23.90;100.00
32320;BME280;19080;51.750;5.888;2023-07-09T05:39:28;101535.38;;;24.26;100.00
32320;BME280;19080;51.750;5.888;2023-07-09T05:41:55;101543.47;;;24.55;100.00
32320;BME280;19080;51.750;5.888;2023-07-09T05:44:22;101536.31;;;24.81;100.00
32320;BME280;19080;51.750;5.888;2023-07-09T05:46:49;101489.19;;;24.82;100.00
32320;BME280;19080;51.750;5.888;2023-07-09T05:49:15;101545.91;;;25.45;100.00
32320;BME280;19080;51.750;5.888;2023-07-09T05:51:42;101477.13;;;25.43;100.00
32320;BME280;19080;51.750;5.888;2023-07-09T05:54:09;101530.00;;;26.08;100.00
32320;BME280;19080;51.750;5.888;2023-07-09T05:56:36;101551.25;;;26.45;100.00
32320;BME280;19080;51.750;5.888;2023-07-09T05:59:02;101540.16;;;26.73;100.00
32320;BME280;19080;51.750;5.888;2023-07-09T06:01:29;101543.06;;;26.90;100.00
32320;BME280;19080;51.750;5.888;2023-07-09T06:03:56;101536.44;;;26.97;100.00
32320;BME280;19080;51.750;5.888;2023-07-09T06:06:23;101562.53;;;27.25;100.00
32320;BME280;19080;51.750;5.888;2023-07-09T06:08:50;101551.31;;;27.32;100.00
32320;BME280;19080;51.750;5.888;2023-07-09T06:11:17;101475.63;;;26.97;100.00
32320;BME280;19080;51.750;5.888;2023-07-09T06:13:46;101551.53;;;27.48;100.00
32320;BME280;19080;51.750;5.888;2023-07-09T06:16:15;101557.53;;;27.76;100.00
32320;BME280;19080;51.750;5.888;2023-07-09T06:18:42;101563.78;;;27.99;100.00
32320;BME280;19080;51.750;5.888;2023-07-09T06:21:09;101563.34;;;28.08;100.00
32320;BME280;19080;51.750;5.888;2023-07-09T06:23:37;101477.16;;;27.83;100.00
32320;BME280;19080;51.750;5.888;2023-07-09T06:26:04;101541.66;;;28.25;100.00
32320;BME280;19080;51.750;5.888;2023-07-09T06:28:32;101510.09;;;28.18;100.00
32320;BME280;19080;51.750;5.888;2023-07-09T06:30:59;101551.91;;;28.76;100.00
32320;BME280;19080;51.750;5.888;2023-07-09T06:33:27;101555.44;;;28.97;100.00
32320;BME280;19080;51.750;5.888;2023-07-09T06:35:56;101570.63;;;29.39;96.65
32320;BME280;19080;51.750;5.888;2023-07-09T06:38:24;101515.44;;;29.31;92.69
32320;BME280;19080;51.750;5.888;2023-07-09T06:40:51;101515.59;;;29.28;93.33
32320;BME280;19080;51.750;5.888;2023-07-09T06:43:18;101570.28;;;29.97;89.82
32320;BME280;19080;51.750;5.888;2023-07-09T06:45:50;101513.78;;;29.78;89.82
32320;BME280;19080;51.750;5.888;2023-07-09T06:48:17;101554.66;;;30.16;87.01
32320;BME280;19080;51.750;5.888;2023-07-09T06:50:44;101571.22;;;30.30;83.62
32320;BME280;19080;51.750;5.888;2023-07-09T06:53:11;101568.63;;;30.27;86.86
32320;BME280;19080;51.750;5.888;2023-07-09T06:55:38;101555.50;;;30.50;81.19
32320;BME280;19080;51.750;5.888;2023-07-09T06:58:05;101513.84;;;30.27;81.57
32320;BME280;19080;51.750;5.888;2023-07-09T07:00:34;101551.41;;;30.74;79.12
32320;BME280;19080;51.750;5.888;2023-07-09T07:03:01;101557.94;;;30.71;81.58
32320;BME280;19080;51.750;5.888;2023-07-09T07:05:28;101521.59;;;30.68;80.58
32320;BME280;19080;51.750;5.888;2023-07-09T07:07:55;101586.50;;;31.15;79.87
32320;BME280;19080;51.750;5.888;2023-07-09T07:10:22;101519.84;;;31.13;75.17
32320;BME280;19080;51.750;5.888;2023-07-09T07:12:49;101571.47;;;31.66;74.21
32320;BME280;19080;51.750;5.888;2023-07-09T07:15:17;101541.84;;;31.57;73.58
32320;BME280;19080;51.750;5.888;2023-07-09T07:17:43;101571.06;;;31.88;69.56
32320;BME280;19080;51.750;5.888;2023-07-09T07:20:11;101575.38;;;31.92;70.23
32320;BME280;19080;51.750;5.888;2023-07-09T07:22:39;101482.41;;;31.42;70.11
32320;BME280;19080;51.750;5.888;2023-07-09T07:25:07;101548.53;;;32.11;69.93
32320;BME280;19080;51.750;5.888;2023-07-09T07:27:35;101553.56;;;32.33;67.90
32320;BME280;19080;51.750;5.888;2023-07-09T07:30:02;101496.72;;;32.19;66.01
32320;BME280;19080;51.750;5.888;2023-07-09T07:32:29;101553.81;;;32.71;63.98
32320;BME280;19080;51.750;5.888;2023-07-09T07:34:56;101551.06;;;32.98;65.48
32320;BME280;19080;51.750;5.888;2023-07-09T07:37:22;101548.00;;;33.03;62.50
32320;BME280;19080;51.750;5.888;2023-07-09T07:39:49;101552.53;;;33.04;63.10
32320;BME280;19080;51.750;5.888;2023-07-09T07:42:16;101537.06;;;33.15;62.96
32320;BME280;19080;51.750;5.888;2023-07-09T07:44:43;101532.78;;;33.24;62.86
32320;BME280;19080;51.750;5.888;2023-07-09T07:47:10;101503.25;;;33.40;61.50
32320;BME280;19080;51.750;5.888;2023-07-09T07:49:38;101551.28;;;33.61;63.50
32320;BME280;19080;51.750;5.888;2023-07-09T07:52:06;101513.38;;;33.52;60.78
32320;BME280;19080;51.750;5.888;2023-07-09T07:54:34;101532.63;;;34.05;59.38
32320;BME280;19080;51.750;5.888;2023-07-09T07:57:01;101546.72;;;34.38;56.54
32320;BME280;19080;51.750;5.888;2023-07-09T07:59:28;101544.19;;;34.22;57.35
32320;BME280;19080;51.750;5.888;2023-07-09T08:01:55;101534.16;;;34.21;57.28
32320;BME280;19080;51.750;5.888;2023-07-09T08:04:22;101513.41;;;34.28;54.40
32320;BME280;19080;51.750;5.888;2023-07-09T08:06:49;101526.84;;;34.46;55.40
32320;BME280;19080;51.750;5.888;2023-07-09T08:09:15;101544.81;;;34.75;56.44
32320;BME280;19080;51.750;5.888;2023-07-09T08:11:43;101529.38;;;34.85;54.87
32320;BME280;19080;51.750;5.888;2023-07-09T08:14:10;101541.88;;;35.02;53.56
32320;BME280;19080;51.750;5.888;2023-07-09T08:16:38;101547.16;;;35.05;52.92
32320;BME280;19080;51.750;5.888;2023-07-09T08:19:05;101500.19;;;34.94;52.80
32320;BME280;19080;51.750;5.888;2023-07-09T08:21:31;101526.53;;;35.22;51.44
32320;BME280;19080;51.750;5.888;2023-07-09T08:23:59;101507.22;;;35.22;51.95
32320;BME280;19080;51.750;5.888;2023-07-09T08:26:26;101523.44;;;35.62;50.57
32320;BME280;19080;51.750;5.888;2023-07-09T08:28:53;101528.25;;;35.71;50.13
32320;BME280;19080;51.750;5.888;2023-07-09T08:31:20;101501.09;;;35.53;48.49
32320;BME280;19080;51.750;5.888;2023-07-09T08:33:47;101480.53;;;35.69;47.87
32320;BME280;19080;51.750;5.888;2023-07-09T08:36:14;101529.81;;;35.97;49.95
32320;BME280;19080;51.750;5.888;2023-07-09T08:38:41;101525.56;;;36.15;47.63
32320;BME280;19080;51.750;5.888;2023-07-09T08:49:19;101538.47;;;36.82;45.74
32320;BME280;19080;51.750;5.888;2023-07-09T08:51:48;101486.00;;;36.37;45.49
32320;BME280;19080;51.750;5.888;2023-07-09T08:54:25;101525.75;;;36.68;44.42
32320;BME280;19080;51.750;5.888;2023-07-09T08:56:59;101514.97;;;36.76;45.08
32320;BME280;19080;51.750;5.888;2023-07-09T08:59:34;101521.97;;;36.92;44.41
32320;BME280;19080;51.750;5.888;2023-07-09T09:02:03;101518.16;;;37.04;46.09
32320;BME280;19080;51.750;5.888;2023-07-09T09:04:36;101485.13;;;37.44;41.84
32320;BME280;19080;51.750;5.888;2023-07-09T09:07:18;101530.06;;;37.47;41.61
32320;BME280;19080;51.750;5.888;2023-07-09T09:09:53;101465.06;;;36.99;42.96
32320;BME280;19080;51.750;5.888;2023-07-09T09:12:26;101470.34;;;37.02;42.54
32320;BME280;19080;51.750;5.888;2023-07-09T09:15:00;101521.00;;;37.45;41.18
32320;BME280;19080;51.750;5.888;2023-07-09T09:17:34;101487.09;;;37.32;40.65
32320;BME280;19080;51.750;5.888;2023-07-09T09:20:16;101519.31;;;37.54;39.86
32320;BME280;19080;51.750;5.888;2023-07-09T09:22:52;101475.47;;;37.38;40.45
32320;BME280;19080;51.750;5.888;2023-07-09T09:25:27;101461.47;;;37.61;39.35
32320;BME280;19080;51.750;5.888;2023-07-09T09:27:55;101450.47;;;37.50;39.37
32320;BME280;19080;51.750;5.888;2023-07-09T09:30:24;101468.78;;;37.83;39.09
32320;BME280;19080;51.750;5.888;2023-07-09T09:33:00;101459.50;;;37.93;40.09
32320;BME280;19080;51.750;5.888;2023-07-09T09:35:32;101472.78;;;38.30;37.82
32320;BME280;19080;51.750;5.888;2023-07-09T09:38:01;101403.03;;;37.94;38.30
32320;BME280;19080;51.750;5.888;2023-07-09T09:40:33;101403.25;;;38.22;37.64
32320;BME280;19080;51.750;5.888;2023-07-09T09:43:01;101445.09;;;38.49;37.23
32320;BME280;19080;51.750;5.888;2023-07-09T09:45:34;101503.59;;;38.77;36.66
32320;BME280;19080;51.750;5.888;2023-07-09T09:48:13;101493.19;;;38.59;36.86
32320;BME280;19080;51.750;5.888;2023-07-09T09:50:41;101522.91;;;38.88;36.49
32320;BME280;19080;51.750;5.888;2023-07-09T09:53:09;101499.28;;;39.03;35.16
32320;BME280;19080;51.750;5.888;2023-07-09T09:55:38;101508.34;;;39.24;36.07
32320;BME280;19080;51.750;5.888;2023-07-09T09:58:11;101521.19;;;39.45;36.00
32320;BME280;19080;51.750;5.888;2023-07-09T10:00:40;101511.84;;;39.65;35.41
32320;BME280;19080;51.750;5.888;2023-07-09T10:03:06;101524.03;;;40.01;35.31
32320;BME280;19080;51.750;5.888;2023-07-09T10:05:43;101446.69;;;39.77;34.27
32320;BME280;19080;51.750;5.888;2023-07-09T10:11:16;101490.47;;;40.12;34.09
32320;BME280;19080;51.750;5.888;2023-07-09T10:13:45;101484.84;;;40.22;33.86
32320;BME280;19080;51.750;5.888;2023-07-09T10:16:27;101442.22;;;39.94;33.57
32320;BME280;19080;51.750;5.888;2023-07-09T10:22:00;101480.31;;;40.21;33.95
32320;BME280;19080;51.750;5.888;2023-07-09T10:24:49;101464.44;;;40.31;34.73
32320;BME280;19080;51.750;5.888;2023-07-09T10:27:29;101489.81;;;40.83;35.33
32320;BME280;19080;51.750;5.888;2023-07-09T10:35:22;101457.75;;;40.79;32.96
32320;BME280;19080;51.750;5.888;2023-07-09T10:40:33;101476.63;;;41.20;32.31
32320;BME280;19080;51.750;5.888;2023-07-09T10:43:04;101482.59;;;41.25;31.58
32320;BME280;19080;51.750;5.888;2023-07-09T10:45:45;101467.88;;;41.59;31.43
32320;BME280;19080;51.750;5.888;2023-07-09T10:48:17;101467.44;;;41.98;31.15
32320;BME280;19080;51.750;5.888;2023-07-09T10:50:54;101431.59;;;41.51;30.73
32320;BME280;19080;51.750;5.888;2023-07-09T10:53:41;101465.69;;;41.45;31.54
32320;BME280;19080;51.750;5.888;2023-07-09T10:56:12;101441.84;;;41.24;31.87
32320;BME280;19080;51.750;5.888;2023-07-09T10:58:46;101437.16;;;41.51;31.04
32320;BME280;19080;51.750;5.888;2023-07-09T11:01:21;101474.66;;;41.82;31.25
32320;BME280;19080;51.750;5.888;2023-07-09T11:03:53;101432.91;;;41.99;30.47
32320;BME280;19080;51.750;5.888;2023-07-09T11:06:41;101477.47;;;42.08;30.25
32320;BME280;19080;51.750;5.888;2023-07-09T11:11:48;101457.38;;;42.89;30.21
32320;BME280;19080;51.750;5.888;2023-07-09T11:16:57;101445.50;;;42.95;28.88
32320;BME280;19080;51.750;5.888;2023-07-09T11:19:25;101427.69;;;43.21;29.08
32320;BME280;19080;51.750;5.888;2023-07-09T11:22:13;101436.03;;;43.53;27.84
32320;BME280;19080;51.750;5.888;2023-07-09T11:24:49;101431.50;;;43.44;29.55
32320;BME280;19080;51.750;5.888;2023-07-09T11:27:25;101390.78;;;43.41;28.48
32320;BME280;19080;51.750;5.888;2023-07-09T11:32:25;101438.19;;;43.27;28.36
32320;BME280;19080;51.750;5.888;2023-07-09T11:34:52;101432.41;;;43.04;27.59
32320;BME280;19080;51.750;5.888;2023-07-09T11:37:25;101383.63;;;42.66;28.28
32320;BME280;19080;51.750;5.888;2023-07-09T11:39:52;101437.47;;;43.08;27.58
32320;BME280;19080;51.750;5.888;2023-07-09T11:42:32;101451.97;;;43.12;28.77
32320;BME280;19080;51.750;5.888;2023-07-09T11:45:10;101457.66;;;42.70;29.30
32320;BME280;19080;51.750;5.888;2023-07-09T11:47:41;101460.09;;;42.73;28.15
32320;BME280;19080;51.750;5.888;2023-07-09T11:50:28;101454.13;;;42.51;27.95
32320;BME280;19080;51.750;5.888;2023-07-09T11:52:58;101413.16;;;42.18;28.84
32320;BME280;19080;51.750;5.888;2023-07-09T11:55:42;101460.09;;;41.97;28.95
32320;BME280;19080;51.750;5.888;2023-07-09T11:58:15;101463.84;;;41.79;29.77
32320;BME280;19080;51.750;5.888;2023-07-09T12:00:44;101455.59;;;41.70;29.25
32320;BME280;19080;51.750;5.888;2023-07-09T12:03:20;101450.94;;;41.52;28.74
32320;BME280;19080;51.750;5.888;2023-07-09T12:05:51;101415.31;;;41.38;29.03
32320;BME280;19080;51.750;5.888;2023-07-09T12:08:27;101460.06;;;41.88;28.39
32320;BME280;19080;51.750;5.888;2023-07-09T12:10:56;101325.09;;;40.95;29.56
32320;BME280;19080;51.750;5.888;2023-07-09T12:13:23;101410.28;;;41.42;28.59
32320;BME280;19080;51.750;5.888;2023-07-09T12:15:49;101450.28;;;41.33;29.73
32320;BME280;19080;51.750;5.888;2023-07-09T12:18:16;101421.63;;;41.22;30.02
32320;BME280;19080;51.750;5.888;2023-07-09T12:20:53;101413.56;;;41.37;29.83
32320;BME280;19080;51.750;5.888;2023-07-09T12:23:24;101450.84;;;41.62;29.08
32320;BME280;19080;51.750;5.888;2023-07-09T12:25:52;101449.81;;;41.19;29.19
32320;BME280;19080;51.750;5.888;2023-07-09T12:28:21;101406.72;;;40.60;30.06
32320;BME280;19080;51.750;5.888;2023-07-09T12:30:51;101361.72;;;40.20;30.23
32320;BME280;19080;51.750;5.888;2023-07-09T12:33:20;101446.50;;;40.71;31.31
32320;BME280;19080;51.750;5.888;2023-07-09T12:35:50;101435.28;;;40.62;30.19
32320;BME280;19080;51.750;5.888;2023-07-09T12:38:21;101443.59;;;40.45;32.15
32320;BME280;19080;51.750;5.888;2023-07-09T12:40:49;101443.84;;;40.24;30.65
32320;BME280;19080;51.750;5.888;2023-07-09T12:43:25;101334.88;;;39.46;31.19
32320;BME280;19080;51.750;5.888;2023-07-09T12:45:53;101422.63;;;39.95;30.47
32320;BME280;19080;51.750;5.888;2023-07-09T12:48:24;101424.88;;;39.82;31.03
32320;BME280;19080;51.750;5.888;2023-07-09T12:50:51;101397.72;;;39.66;29.63
32320;BME280;19080;51.750;5.888;2023-07-09T12:53:20;101405.00;;;39.77;30.93
32320;BME280;19080;51.750;5.888;2023-07-09T12:55:49;101378.19;;;39.49;30.03
32320;BME280;19080;51.750;5.888;2023-07-09T12:58:23;101394.66;;;39.60;31.34
32320;BME280;19080;51.750;5.888;2023-07-09T13:00:53;101402.59;;;39.55;31.43
32320;BME280;19080;51.750;5.888;2023-07-09T13:03:25;101348.97;;;39.25;31.31
32320;BME280;19080;51.750;5.888;2023-07-09T13:06:06;101414.41;;;39.66;30.97
32320;BME280;19080;51.750;5.888;2023-07-09T13:08:41;101405.22;;;39.93;31.14
32320;BME280;19080;51.750;5.888;2023-07-09T13:11:16;101408.66;;;40.05;33.67
32320;BME280;19080;51.750;5.888;2023-07-09T13:14:02;101399.03;;;39.90;32.31
32320;BME280;19080;51.750;5.888;2023-07-09T13:16:29;101379.34;;;39.36;32.53
32320;BME280;19080;51.750;5.888;2023-07-09T13:18:56;101371.53;;;39.03;33.55
32320;BME280;19080;51.750;5.888;2023-07-09T13:21:23;101403.66;;;38.77;33.50
32320;BME280;19080;51.750;5.888;2023-07-09T13:23:52;101316.22;;;37.94;34.58
32320;BME280;19080;51.750;5.888;2023-07-09T13:26:19;101371.69;;;38.03;34.54
32320;BME280;19080;51.750;5.888;2023-07-09T13:28:46;101392.94;;;37.84;36.47